createdAt,value
2019-02-05T00:00:56.000Z,2.70
2019-02-05T00:03:01.210Z,2.70
2019-02-05T00:05:06.565Z,2.70
2019-02-05T00:07:11.461Z,2.80
2019-02-05T00:09:16.170Z,2.80
2019-02-05T00:11:21.099Z,2.80
2019-02-05T00:13:25.914Z,2.80
2019-02-05T00:15:31.262Z,2.80
2019-02-05T00:17:36.401Z,2.80
2019-02-05T00:19:41.487Z,2.80
2019-02-05T00:21:46.267Z,2.80
2019-02-05T00:23:51.341Z,2.80
2019-02-05T00:26:05.852Z,2.80
2019-02-05T00:28:03.127Z,2.80
2019-02-05T00:30:08.418Z,2.80
2019-02-05T00:32:13.210Z,2.90
2019-02-05T00:34:17.976Z,2.90
2019-02-05T00:36:22.754Z,2.80
2019-02-05T00:38:27.503Z,2.90
2019-02-05T00:40:32.684Z,2.90
2019-02-05T00:42:37.518Z,2.90
2019-02-05T00:44:42.346Z,2.90
2019-02-05T00:46:47.114Z,2.90
2019-02-05T00:48:51.914Z,2.90
2019-02-05T00:50:56.669Z,2.90
2019-02-05T00:53:01.628Z,2.90
2019-02-05T00:55:07.962Z,2.90
2019-02-05T00:57:12.787Z,2.90
2019-02-05T00:59:17.707Z,2.80
2019-02-05T01:01:22.740Z,2.80
2019-02-05T01:03:27.843Z,2.80
2019-02-05T01:05:32.809Z,2.80
2019-02-05T01:07:38.121Z,2.80
2019-02-05T01:09:43.401Z,2.80
2019-02-05T01:11:48.324Z,2.80
2019-02-05T01:13:53.278Z,2.80
2019-02-05T01:15:59.306Z,2.80
2019-02-05T01:18:04.342Z,2.80
2019-02-05T01:20:12.021Z,2.80
2019-02-05T01:22:16.820Z,2.80
2019-02-05T01:24:21.677Z,2.80
2019-02-05T01:26:29.426Z,2.80
2019-02-05T01:28:33.042Z,2.80
2019-02-05T01:30:37.839Z,2.80
2019-02-05T01:32:42.650Z,2.80
2019-02-05T01:34:47.476Z,2.90
2019-02-05T01:36:52.412Z,2.90
2019-02-05T01:38:57.646Z,2.80
2019-02-05T01:41:09.968Z,2.80
2019-02-05T01:43:24.861Z,2.90
2019-02-05T01:45:29.716Z,2.80
2019-02-05T01:47:35.978Z,2.90
2019-02-05T01:49:40.811Z,2.80
2019-02-05T01:51:45.684Z,2.80
2019-02-05T01:53:50.944Z,2.80
2019-02-05T01:55:55.875Z,2.80
2019-02-05T01:58:00.695Z,2.80
2019-02-05T02:00:06.905Z,2.80
2019-02-05T02:02:12.148Z,2.80
2019-02-05T02:04:17.008Z,2.80
2019-02-05T02:06:21.936Z,2.80
2019-02-05T02:08:26.732Z,2.80
2019-02-05T02:10:33.818Z,2.80
2019-02-05T02:12:38.857Z,2.80
2019-02-05T02:14:43.695Z,2.80
2019-02-05T02:16:48.768Z,2.80
2019-02-05T02:18:53.522Z,2.70
2019-02-05T02:20:58.300Z,2.70
2019-02-05T02:23:03.371Z,2.80
2019-02-05T02:25:09.248Z,2.80
2019-02-05T02:27:14.127Z,2.80
2019-02-05T02:29:18.903Z,2.80
2019-02-05T02:31:23.879Z,2.80
2019-02-05T02:33:28.696Z,2.80
2019-02-05T02:35:33.626Z,2.80
2019-02-05T02:37:38.457Z,2.80
2019-02-05T02:39:43.646Z,2.80
2019-02-05T02:41:48.441Z,2.80
2019-02-05T02:43:53.220Z,2.80
2019-02-05T02:45:58.054Z,2.80
2019-02-05T02:48:02.882Z,2.80
2019-02-05T02:50:09.479Z,2.80
2019-02-05T02:52:14.323Z,2.80
2019-02-05T02:54:19.090Z,2.80
2019-02-05T02:56:23.994Z,2.80
2019-02-05T02:58:28.950Z,2.80
2019-02-05T03:00:33.758Z,2.80
2019-02-05T03:02:38.722Z,2.80
2019-02-05T03:04:44.447Z,2.80
2019-02-05T03:06:49.619Z,2.80
2019-02-05T03:08:55.020Z,2.80
2019-02-05T03:10:59.780Z,2.80
2019-02-05T03:13:04.631Z,2.80
2019-02-05T03:15:09.931Z,2.80
2019-02-05T03:17:14.691Z,2.80
2019-02-05T03:19:19.514Z,2.80
2019-02-05T03:21:24.314Z,2.80
2019-02-05T03:23:29.603Z,2.80
2019-02-05T03:25:34.598Z,2.70
2019-02-05T03:27:39.481Z,2.70
2019-02-05T03:29:44.299Z,2.70
2019-02-05T03:31:49.426Z,2.80
2019-02-05T03:33:54.194Z,2.80
2019-02-05T03:35:58.980Z,2.80
2019-02-05T03:38:03.694Z,2.80
2019-02-05T03:40:15.345Z,2.80
2019-02-05T03:42:20.140Z,2.80
2019-02-05T03:44:25.402Z,2.80
2019-02-05T03:46:30.905Z,2.80
2019-02-05T03:48:36.697Z,2.80
2019-02-05T03:50:45.378Z,2.80
2019-02-05T03:52:55.770Z,2.80
2019-02-05T03:55:26.369Z,2.80
2019-02-05T03:58:00.819Z,2.80
2019-02-05T04:00:43.292Z,2.80
2019-02-05T04:03:15.537Z,2.80
2019-02-05T04:05:48.199Z,2.80
2019-02-05T04:08:33.710Z,2.80
2019-02-05T04:11:11.409Z,2.80
2019-02-05T04:13:39.528Z,2.80
2019-02-05T04:16:44.092Z,2.80
2019-02-05T04:19:21.654Z,2.80
2019-02-05T04:22:08.029Z,2.80
2019-02-05T04:24:48.598Z,2.80
2019-02-05T04:27:28.793Z,2.80
2019-02-05T04:30:16.111Z,2.80
2019-02-05T04:32:38.413Z,2.80
2019-02-05T04:35:12.731Z,2.80
2019-02-05T04:37:44.911Z,2.80
2019-02-05T04:40:39.962Z,2.80
2019-02-05T04:43:10.444Z,2.80
2019-02-05T04:45:47.124Z,2.80
2019-02-05T04:48:28.423Z,2.90
2019-02-05T04:51:13.822Z,2.90
2019-02-05T04:54:17.193Z,2.90
2019-02-05T04:56:51.380Z,2.90
2019-02-05T04:59:27.029Z,2.90
2019-02-05T05:02:20.363Z,2.90
2019-02-05T05:04:50.026Z,2.90
2019-02-05T05:07:34.943Z,2.90
2019-02-05T05:09:52.491Z,2.90
2019-02-05T05:11:57.650Z,2.90
2019-02-05T05:14:02.578Z,2.90
2019-02-05T05:16:07.438Z,2.90
2019-02-05T05:18:15.463Z,2.90
2019-02-05T05:20:19.064Z,2.90
2019-02-05T05:22:25.299Z,2.90
2019-02-05T05:24:30.137Z,2.90
2019-02-05T05:26:44.310Z,2.90
2019-02-05T05:28:49.537Z,2.90
2019-02-05T05:30:54.601Z,2.90
2019-02-05T05:32:59.604Z,2.90
2019-02-05T05:35:05.931Z,2.90
2019-02-05T05:37:08.852Z,2.90
2019-02-05T05:39:13.634Z,2.90
2019-02-05T05:41:18.561Z,2.90
2019-02-05T05:43:23.739Z,2.90
2019-02-05T05:45:29.145Z,2.90
2019-02-05T05:47:33.930Z,2.90
2019-02-05T05:49:41.804Z,2.90
2019-02-05T05:51:46.893Z,2.90
2019-02-05T05:53:51.713Z,2.90
2019-02-05T05:55:56.725Z,2.90
2019-02-05T05:58:01.729Z,2.90
2019-02-05T06:00:09.514Z,2.90
2019-02-05T06:02:14.238Z,2.90
2019-02-05T06:04:19.346Z,2.90
2019-02-05T06:06:24.201Z,2.90
2019-02-05T06:08:29.199Z,2.90
2019-02-05T06:10:34.261Z,2.90
2019-02-05T06:12:38.946Z,2.90
2019-02-05T06:14:43.873Z,2.90
2019-02-05T06:16:49.216Z,2.90
2019-02-05T06:18:53.970Z,3.00
2019-02-05T06:20:58.788Z,3.00
2019-02-05T06:23:03.766Z,3.00
2019-02-05T06:25:09.151Z,2.90
2019-02-05T06:27:14.551Z,3.00
2019-02-05T06:29:19.699Z,3.00
2019-02-05T06:31:24.862Z,3.00
2019-02-05T06:33:29.637Z,3.00
2019-02-05T06:35:34.781Z,3.00
2019-02-05T06:37:39.565Z,3.00
2019-02-05T06:39:44.519Z,3.00
2019-02-05T06:41:50.016Z,3.00
2019-02-05T06:43:55.131Z,3.00
2019-02-05T06:45:59.855Z,3.00
2019-02-05T06:48:05.463Z,2.90
2019-02-05T06:50:11.338Z,2.90
2019-02-05T06:52:16.102Z,2.90
2019-02-05T06:54:20.987Z,2.90
2019-02-05T06:56:25.812Z,2.90
2019-02-05T06:58:30.903Z,2.90
2019-02-05T07:00:36.050Z,2.90
2019-02-05T07:02:40.947Z,2.90
2019-02-05T07:04:45.728Z,2.90
2019-02-05T07:06:50.613Z,2.90
2019-02-05T07:08:55.419Z,2.90
2019-02-05T07:11:00.810Z,2.90
2019-02-05T07:13:05.685Z,2.90
2019-02-05T07:15:10.788Z,2.90
2019-02-05T07:17:15.718Z,3.00
2019-02-05T07:19:20.597Z,3.00
2019-02-05T07:21:25.859Z,3.00
2019-02-05T07:23:30.791Z,3.00
2019-02-05T07:25:35.718Z,3.00
2019-02-05T07:27:40.521Z,3.00
2019-02-05T07:29:45.385Z,3.00
2019-02-05T07:31:50.174Z,3.00
2019-02-05T07:33:55.024Z,3.00
2019-02-05T07:35:59.878Z,3.00
2019-02-05T07:38:04.950Z,3.10
2019-02-05T07:40:12.344Z,3.10
2019-02-05T07:42:17.538Z,3.10
2019-02-05T07:44:22.378Z,3.10
2019-02-05T07:46:27.225Z,3.10
2019-02-05T07:48:32.053Z,3.10
2019-02-05T07:50:37.408Z,3.10
2019-02-05T07:52:42.716Z,3.10
2019-02-05T07:54:47.578Z,3.10
2019-02-05T07:56:52.408Z,3.10
2019-02-05T07:58:57.375Z,3.20
2019-02-05T08:01:02.621Z,3.20
2019-02-05T08:03:07.952Z,3.20
2019-02-05T08:05:15.786Z,3.20
2019-02-05T08:07:20.679Z,3.20
2019-02-05T08:09:25.513Z,3.20
2019-02-05T08:11:30.361Z,3.20
2019-02-05T08:13:35.555Z,3.20
2019-02-05T08:15:40.876Z,3.30
2019-02-05T08:17:45.810Z,3.30
2019-02-05T08:19:50.858Z,3.30
2019-02-05T08:21:55.708Z,3.30
2019-02-05T08:24:00.577Z,3.30
2019-02-05T08:26:05.696Z,3.30
2019-02-05T08:28:10.622Z,3.30
2019-02-05T08:30:24.289Z,3.30
2019-02-05T08:32:29.190Z,3.00
2019-02-05T08:34:34.678Z,3.30
2019-02-05T08:36:39.537Z,3.30
2019-02-05T08:38:44.359Z,3.40
2019-02-05T08:40:49.589Z,3.40
2019-02-05T08:42:54.595Z,3.40
2019-02-05T08:44:59.711Z,3.40
2019-02-05T08:47:04.597Z,3.40
2019-02-05T08:49:09.701Z,3.40
2019-02-05T08:51:14.617Z,3.40
2019-02-05T08:53:19.901Z,3.40
2019-02-05T08:55:25.113Z,3.50
2019-02-05T08:57:29.958Z,3.50
2019-02-05T08:59:35.139Z,3.50
2019-02-05T09:01:40.187Z,3.60
2019-02-05T09:03:45.365Z,3.60
2019-02-05T09:05:50.823Z,3.60
2019-02-05T09:07:55.642Z,3.60
2019-02-05T09:10:00.621Z,3.70
2019-02-05T09:12:06.265Z,3.70
2019-02-05T09:14:13.151Z,3.70
2019-02-05T09:16:17.797Z,3.80
2019-02-05T09:18:22.645Z,3.80
2019-02-05T09:20:27.856Z,3.80
2019-02-05T09:22:32.736Z,3.80
2019-02-05T09:24:40.456Z,3.90
2019-02-05T09:26:45.218Z,3.90
2019-02-05T09:28:52.429Z,3.90
2019-02-05T09:30:56.756Z,3.90
2019-02-05T09:33:03.972Z,4.00
2019-02-05T09:35:09.669Z,4.00
2019-02-05T09:37:14.852Z,4.10
2019-02-05T09:39:19.647Z,4.10
2019-02-05T09:41:24.493Z,4.10
2019-02-05T09:43:29.286Z,4.10
2019-02-05T09:45:34.326Z,4.10
2019-02-05T09:47:39.546Z,4.10
2019-02-05T09:49:44.842Z,4.00
2019-02-05T09:51:50.466Z,4.10
2019-02-05T09:53:55.300Z,4.20
2019-02-05T09:56:00.195Z,4.20
2019-02-05T09:58:05.197Z,4.20
2019-02-05T10:00:27.847Z,4.30
2019-02-05T10:02:33.123Z,4.30
2019-02-05T10:04:38.059Z,4.30
2019-02-05T10:06:43.573Z,4.40
2019-02-05T10:08:48.549Z,4.40
2019-02-05T10:10:53.446Z,4.40
2019-02-05T10:12:58.757Z,4.50
2019-02-05T10:15:03.835Z,4.50
2019-02-05T10:17:08.765Z,4.60
2019-02-05T10:19:13.728Z,4.60
2019-02-05T10:21:18.565Z,4.70
2019-02-05T10:23:23.799Z,4.70
2019-02-05T10:25:28.771Z,4.70
2019-02-05T10:27:33.697Z,4.70
2019-02-05T10:29:38.758Z,4.80
2019-02-05T10:31:44.140Z,4.80
2019-02-05T10:33:55.312Z,4.80
2019-02-05T10:35:55.991Z,4.90
2019-02-05T10:38:00.978Z,4.90
2019-02-05T10:40:06.500Z,4.90
2019-02-05T10:42:11.397Z,4.90
2019-02-05T10:44:16.668Z,4.90
2019-02-05T10:46:21.653Z,4.90
2019-02-05T10:48:26.535Z,5.00
2019-02-05T10:50:31.599Z,4.90
2019-02-05T10:52:36.428Z,5.00
2019-02-05T10:54:41.338Z,5.00
2019-02-05T10:56:46.387Z,5.00
2019-02-05T10:58:51.198Z,5.00
2019-02-05T11:00:56.164Z,5.00
2019-02-05T11:03:03.249Z,5.00
2019-02-05T11:05:09.021Z,5.00
2019-02-05T11:07:13.907Z,5.00
2019-02-05T11:09:18.687Z,5.00
2019-02-05T11:11:23.555Z,5.00
2019-02-05T11:13:28.886Z,5.00
2019-02-05T11:15:52.643Z,5.00
2019-02-05T11:17:57.691Z,5.10
2019-02-05T11:20:02.952Z,5.20
2019-02-05T11:22:08.066Z,5.20
2019-02-05T11:24:13.335Z,5.20
2019-02-05T11:26:18.183Z,5.20
2019-02-05T11:28:23.492Z,5.20
2019-02-05T11:30:38.780Z,5.10
2019-02-05T11:32:43.676Z,5.10
2019-02-05T11:34:48.521Z,5.20
2019-02-05T11:36:53.371Z,5.20
2019-02-05T11:38:58.313Z,5.20
2019-02-05T11:41:03.125Z,5.20
2019-02-05T11:43:08.107Z,5.10
2019-02-05T11:45:14.421Z,5.10
2019-02-05T11:47:19.259Z,5.20
2019-02-05T11:49:24.198Z,5.20
2019-02-05T11:51:29.018Z,5.20
2019-02-05T11:53:34.319Z,5.20
2019-02-05T11:55:39.895Z,5.20
2019-02-05T11:57:44.787Z,5.30
2019-02-05T11:59:49.625Z,5.30
2019-02-05T12:01:54.529Z,5.20
2019-02-05T12:03:59.726Z,5.20
2019-02-05T12:06:04.902Z,5.20
2019-02-05T12:08:09.858Z,5.30
2019-02-05T12:10:14.904Z,5.30
2019-02-05T12:12:20.158Z,5.30
2019-02-05T12:14:25.672Z,5.30
2019-02-05T12:16:30.619Z,5.30
2019-02-05T12:18:35.870Z,5.30
2019-02-05T12:20:40.818Z,5.30
2019-02-05T12:22:47.220Z,5.30
2019-02-05T12:24:52.060Z,5.30
2019-02-05T12:26:56.995Z,5.20
2019-02-05T12:29:01.818Z,5.20
2019-02-05T12:31:06.798Z,5.30
2019-02-05T12:33:11.835Z,5.30
2019-02-05T12:35:16.683Z,5.30
2019-02-05T12:37:21.853Z,5.30
2019-02-05T12:39:26.793Z,5.30
2019-02-05T12:41:31.582Z,5.30
2019-02-05T12:43:36.979Z,5.30
2019-02-05T12:45:42.291Z,5.40
2019-02-05T12:47:47.213Z,5.40
2019-02-05T12:49:52.381Z,5.40
2019-02-05T12:51:57.299Z,5.40
2019-02-05T12:54:02.102Z,5.40
2019-02-05T12:56:07.782Z,5.40
2019-02-05T12:58:12.649Z,5.40
2019-02-05T13:00:23.620Z,5.50
2019-02-05T13:02:28.556Z,5.50
2019-02-05T13:04:33.380Z,5.50
2019-02-05T13:06:38.182Z,5.60
2019-02-05T13:08:43.395Z,5.60
2019-02-05T13:10:52.546Z,5.70
2019-02-05T13:12:57.798Z,5.70
2019-02-05T13:15:02.654Z,5.70
2019-02-05T13:17:07.567Z,5.70
2019-02-05T13:19:12.508Z,5.70
2019-02-05T13:21:17.333Z,5.80
2019-02-05T13:23:22.166Z,5.80
2019-02-05T13:25:28.380Z,6.00
2019-02-05T13:27:33.656Z,5.90
2019-02-05T13:29:38.922Z,5.90
2019-02-05T13:31:43.898Z,6.00
2019-02-05T13:33:51.754Z,6.00
2019-02-05T13:35:56.615Z,6.00
2019-02-05T13:38:02.104Z,6.10
2019-02-05T13:40:08.725Z,6.10
2019-02-05T13:42:13.857Z,6.10
2019-02-05T13:44:19.040Z,6.10
2019-02-05T13:46:24.286Z,6.10
2019-02-05T13:48:29.201Z,6.10
2019-02-05T13:50:34.265Z,6.00
2019-02-05T13:52:39.237Z,6.00
2019-02-05T13:54:44.414Z,6.00
2019-02-05T13:56:49.282Z,6.00
2019-02-05T13:58:54.232Z,6.00
2019-02-05T14:00:59.345Z,6.00
2019-02-05T14:03:04.461Z,6.00
2019-02-05T14:05:10.293Z,6.00
2019-02-05T14:07:15.224Z,6.10
2019-02-05T14:09:20.024Z,6.00
2019-02-05T14:11:24.874Z,6.10
2019-02-05T14:13:29.681Z,6.10
2019-02-05T14:15:36.204Z,6.20
2019-02-05T14:17:41.443Z,6.20
2019-02-05T14:19:46.583Z,6.20
2019-02-05T14:21:51.450Z,6.30
2019-02-05T14:23:56.266Z,6.30
2019-02-05T14:26:01.421Z,6.30
2019-02-05T14:28:06.620Z,6.30
2019-02-05T14:30:32.675Z,6.70
2019-02-05T14:32:37.911Z,6.20
2019-02-05T14:34:42.736Z,6.20
2019-02-05T14:36:47.803Z,6.30
2019-02-05T14:38:53.180Z,6.20
2019-02-05T14:40:58.306Z,6.30
2019-02-05T14:43:03.915Z,6.30
2019-02-05T14:45:10.217Z,6.30
2019-02-05T14:47:15.479Z,6.30
2019-02-05T14:49:20.333Z,6.30
2019-02-05T14:51:26.005Z,6.30
2019-02-05T14:53:31.046Z,6.30
2019-02-05T14:55:36.385Z,6.30
2019-02-05T14:57:41.148Z,6.30
2019-02-05T14:59:46.780Z,6.20
2019-02-05T15:01:51.640Z,6.20
2019-02-05T15:03:56.499Z,6.20
2019-02-05T15:06:01.334Z,6.20
2019-02-05T15:08:06.822Z,6.20
2019-02-05T15:10:12.470Z,6.20
2019-02-05T15:12:17.465Z,6.20
2019-02-05T15:14:22.258Z,6.20
2019-02-05T15:16:27.450Z,6.10
2019-02-05T15:18:32.717Z,6.10
2019-02-05T15:20:42.967Z,6.10
2019-02-05T15:22:47.807Z,6.10
2019-02-05T15:24:52.693Z,6.10
2019-02-05T15:26:57.677Z,6.10
2019-02-05T15:29:02.600Z,6.10
2019-02-05T15:31:07.426Z,6.00
2019-02-05T15:33:42.102Z,6.00
2019-02-05T15:35:51.430Z,6.00
2019-02-05T15:37:56.767Z,6.00
2019-02-05T15:40:01.644Z,6.00
2019-02-05T15:42:06.518Z,6.10
2019-02-05T15:44:11.510Z,6.10
2019-02-05T15:46:16.612Z,6.10
2019-02-05T15:48:21.876Z,6.00
2019-02-05T15:50:27.202Z,5.90
2019-02-05T15:52:32.035Z,5.90
2019-02-05T15:54:36.922Z,5.90
2019-02-05T15:56:41.979Z,5.80
2019-02-05T15:58:47.128Z,5.80
2019-02-05T16:00:52.212Z,5.80
2019-02-05T16:02:57.006Z,5.70
2019-02-05T16:05:02.201Z,5.70
2019-02-05T16:07:07.292Z,5.70
2019-02-05T16:09:13.101Z,5.60
2019-02-05T16:11:17.947Z,5.50
2019-02-05T16:13:22.952Z,5.50
2019-02-05T16:15:28.263Z,5.40
2019-02-05T16:17:33.054Z,5.40
2019-02-05T16:19:37.917Z,5.30
2019-02-05T16:21:43.214Z,5.30
2019-02-05T16:23:48.348Z,5.20
2019-02-05T16:25:54.180Z,5.20
2019-02-05T16:27:59.184Z,5.20
2019-02-05T16:30:23.518Z,5.20
2019-02-05T16:32:29.352Z,5.20
2019-02-05T16:34:34.312Z,5.10
2019-02-05T16:36:39.628Z,5.10
2019-02-05T16:38:44.370Z,5.10
2019-02-05T16:40:49.199Z,5.10
2019-02-05T16:42:54.467Z,5.10
2019-02-05T16:44:59.608Z,5.00
2019-02-05T16:47:05.057Z,5.00
2019-02-05T16:49:09.890Z,4.90
2019-02-05T16:51:15.172Z,4.90
2019-02-05T16:53:20.156Z,4.90
2019-02-05T16:55:25.304Z,4.90
2019-02-05T16:57:30.131Z,4.80
2019-02-05T16:59:34.960Z,4.80
2019-02-05T17:01:39.754Z,4.80
2019-02-05T17:03:44.840Z,4.80
2019-02-05T17:05:49.871Z,4.80
2019-02-05T17:07:54.700Z,4.80
2019-02-05T17:09:59.653Z,4.80
2019-02-05T17:12:41.849Z,4.80
2019-02-05T17:14:47.119Z,4.80
2019-02-05T17:16:52.010Z,4.80
2019-02-05T17:18:56.909Z,4.80
2019-02-05T17:21:01.824Z,4.80
2019-02-05T17:23:06.761Z,4.80
2019-02-05T17:25:13.499Z,4.80
2019-02-05T17:27:19.102Z,4.80
2019-02-05T17:29:24.212Z,4.80
2019-02-05T17:31:29.468Z,4.80
2019-02-05T17:33:34.427Z,4.80
2019-02-05T17:35:40.037Z,4.80
2019-02-05T17:37:45.513Z,4.80
2019-02-05T17:39:50.504Z,4.80
2019-02-05T17:41:55.399Z,4.80
2019-02-05T17:44:00.641Z,4.80
2019-02-05T17:46:06.019Z,4.80
2019-02-05T17:48:13.562Z,4.80
2019-02-05T17:50:19.439Z,4.80
2019-02-05T17:52:24.263Z,4.80
2019-02-05T17:54:29.488Z,4.80
2019-02-05T17:56:34.464Z,4.80
2019-02-05T17:58:39.316Z,4.80
2019-02-05T18:00:53.050Z,4.70
2019-02-05T18:03:00.360Z,4.70
2019-02-05T18:05:08.186Z,4.70
2019-02-05T18:07:13.007Z,4.70
2019-02-05T18:09:17.953Z,4.70
2019-02-05T18:11:28.092Z,4.70
2019-02-05T18:13:35.102Z,4.70
2019-02-05T18:15:40.314Z,4.70
2019-02-05T18:17:45.278Z,4.70
2019-02-05T18:19:53.193Z,4.70
2019-02-05T18:21:58.109Z,4.70
2019-02-05T18:24:02.983Z,4.70
2019-02-05T18:26:08.651Z,4.70
2019-02-05T18:28:13.890Z,4.60
2019-02-05T18:30:27.645Z,4.60
2019-02-05T18:32:32.614Z,4.60
2019-02-05T18:34:37.432Z,4.60
2019-02-05T18:36:42.363Z,4.50
2019-02-05T18:38:47.632Z,4.50
2019-02-05T18:40:52.817Z,4.50
2019-02-05T18:42:57.764Z,4.50
2019-02-05T18:45:03.071Z,4.50
2019-02-05T18:47:08.708Z,4.50
2019-02-05T18:49:13.969Z,4.40
2019-02-05T18:51:18.946Z,4.30
2019-02-05T18:53:23.832Z,4.30
2019-02-05T18:55:29.734Z,4.20
2019-02-05T18:57:34.583Z,4.10
2019-02-05T18:59:39.533Z,4.00
2019-02-05T19:01:44.927Z,3.90
2019-02-05T19:03:50.528Z,3.80
2019-02-05T19:05:57.344Z,3.80
2019-02-05T19:08:02.656Z,3.80
2019-02-05T19:10:08.237Z,3.80
2019-02-05T19:12:13.862Z,3.80
2019-02-05T19:14:19.058Z,3.80
2019-02-05T19:16:23.918Z,3.70
2019-02-05T19:18:28.748Z,3.70
2019-02-05T19:20:33.886Z,3.60
2019-02-05T19:22:38.920Z,3.60
2019-02-05T19:24:50.595Z,3.60
2019-02-05T19:26:57.944Z,3.50
2019-02-05T19:29:06.476Z,3.50
2019-02-05T19:31:27.995Z,3.50
2019-02-05T19:33:32.813Z,3.40
2019-02-05T19:35:37.627Z,3.30
2019-02-05T19:37:42.868Z,3.30
2019-02-05T19:39:47.713Z,3.20
2019-02-05T19:41:52.571Z,3.10
2019-02-05T19:43:57.468Z,3.00
2019-02-05T19:46:19.790Z,3.00
2019-02-05T19:48:30.737Z,3.10
2019-02-05T19:50:35.977Z,3.10
2019-02-05T19:52:41.271Z,3.20
2019-02-05T19:54:46.452Z,3.20
2019-02-05T19:56:51.716Z,3.20
2019-02-05T19:58:57.371Z,3.30
2019-02-05T20:01:05.171Z,3.30
2019-02-05T20:03:09.999Z,3.30
2019-02-05T20:05:15.104Z,3.30
2019-02-05T20:07:20.072Z,3.30
2019-02-05T20:09:24.988Z,3.30
2019-02-05T20:11:29.850Z,3.30
2019-02-05T20:13:40.264Z,3.20
2019-02-05T20:15:41.013Z,3.20
2019-02-05T20:17:46.527Z,3.20
2019-02-05T20:19:51.521Z,3.20
2019-02-05T20:21:56.435Z,3.20
2019-02-05T20:24:01.325Z,3.20
2019-02-05T20:26:06.730Z,3.20
2019-02-05T20:28:12.127Z,3.20
2019-02-05T20:30:17.614Z,3.20
2019-02-05T20:32:22.543Z,3.20
2019-02-05T20:34:27.398Z,3.20
2019-02-05T20:36:33.415Z,3.20
2019-02-05T20:38:38.533Z,3.20
2019-02-05T20:40:43.387Z,3.20
2019-02-05T20:42:48.459Z,3.20
2019-02-05T20:44:53.360Z,3.20
2019-02-05T20:46:58.566Z,3.20
2019-02-05T20:49:03.957Z,3.20
2019-02-05T20:51:08.804Z,3.20
2019-02-05T20:53:14.451Z,3.20
2019-02-05T20:55:20.160Z,3.10
2019-02-05T20:57:24.944Z,3.10
2019-02-05T20:59:30.471Z,2.90
2019-02-05T21:01:35.403Z,2.90
2019-02-05T21:03:40.610Z,2.90
2019-02-05T21:05:45.936Z,2.80
2019-02-05T21:07:50.829Z,2.80
2019-02-05T21:09:56.484Z,2.70
2019-02-05T21:12:01.294Z,2.70
2019-02-05T21:14:06.174Z,2.60
2019-02-05T21:16:11.323Z,2.60
2019-02-05T21:18:17.499Z,2.60
2019-02-05T21:20:29.351Z,2.50
2019-02-05T21:22:29.371Z,2.50
2019-02-05T21:24:34.184Z,2.50
2019-02-05T21:26:39.331Z,2.50
2019-02-05T21:28:44.779Z,2.50
2019-02-05T21:30:49.700Z,2.50
2019-02-05T21:32:55.006Z,2.50
2019-02-05T21:34:59.848Z,2.50
2019-02-05T21:37:04.799Z,2.50
2019-02-05T21:39:11.744Z,2.50
2019-02-05T21:41:16.580Z,2.50
2019-02-05T21:43:21.726Z,2.50
2019-02-05T21:45:26.687Z,2.40
2019-02-05T21:47:37.523Z,2.40
2019-02-05T21:49:42.432Z,2.30
2019-02-05T21:51:47.254Z,2.30
2019-02-05T21:53:52.155Z,2.20
2019-02-05T21:55:57.144Z,2.10
2019-02-05T21:58:02.401Z,2.00
2019-02-05T22:00:16.443Z,2.00
2019-02-05T22:02:24.580Z,2.00
2019-02-05T22:04:29.578Z,1.90
2019-02-05T22:06:34.475Z,1.90
2019-02-05T22:08:39.450Z,1.90
2019-02-05T22:10:44.391Z,1.90
2019-02-05T22:12:50.127Z,1.80
2019-02-05T22:14:55.720Z,1.90
2019-02-05T22:17:00.935Z,1.80
2019-02-05T22:19:06.409Z,1.80
2019-02-05T22:21:11.449Z,1.80
2019-02-05T22:23:16.333Z,1.70
2019-02-05T22:25:25.678Z,1.70
2019-02-05T22:27:31.258Z,1.70
2019-02-05T22:29:36.122Z,1.70
2019-02-05T22:31:41.388Z,1.70
2019-02-05T22:33:46.924Z,1.70
2019-02-05T22:35:51.808Z,1.70
2019-02-05T22:37:57.376Z,1.70
2019-02-05T22:40:02.349Z,1.60
2019-02-05T22:42:07.883Z,1.60
2019-02-05T22:44:12.784Z,1.60
2019-02-05T22:46:18.296Z,1.60
2019-02-05T22:48:23.494Z,1.60
2019-02-05T22:50:30.152Z,1.50
2019-02-05T22:52:37.393Z,1.60
2019-02-05T22:54:42.410Z,1.50
2019-02-05T22:56:47.318Z,1.50
2019-02-05T22:58:52.233Z,1.50
2019-02-05T23:01:31.081Z,1.50
2019-02-05T23:03:42.748Z,1.50
2019-02-05T23:06:12.978Z,1.50
2019-02-05T23:08:17.876Z,1.50
2019-02-05T23:11:03.215Z,1.50
2019-02-05T23:13:06.752Z,1.50
2019-02-05T23:15:18.463Z,1.50
2019-02-05T23:17:23.286Z,1.50
2019-02-05T23:19:28.299Z,1.50
2019-02-05T23:21:33.478Z,1.40
2019-02-05T23:23:38.598Z,1.40
2019-02-05T23:25:43.375Z,1.40
2019-02-05T23:27:48.127Z,1.40
2019-02-05T23:29:52.891Z,1.50
2019-02-05T23:31:57.716Z,1.50
2019-02-05T23:34:02.542Z,1.40
2019-02-05T23:36:07.693Z,1.40
2019-02-05T23:38:12.583Z,1.40
2019-02-05T23:40:17.488Z,1.40
2019-02-05T23:42:22.605Z,1.40
2019-02-05T23:44:28.391Z,1.40
2019-02-05T23:46:33.649Z,1.40
2019-02-05T23:48:38.466Z,1.40
2019-02-05T23:50:43.426Z,1.40
2019-02-05T23:52:48.510Z,1.50
2019-02-05T23:54:53.263Z,1.50
2019-02-05T23:56:58.412Z,1.50
2019-02-05T23:59:03.549Z,1.50
